Time;durP1;ratioP1;P1;durP2;ratioP2;P2;SDS_P1;SDS_P2;PMS_P1;PMS_P2;Temp;Humidity;BMP_temperature;BMP_pressure;BME280_temperature;BME280_humidity;BME280_pressure;Samples;Min_cycle;Max_cycle;Signal;HPM_P1;HPM_P2
2022/05/06 00:01:31;;;;;;;4.85;1.40;;;;;;;16.61;37.07;99515.69;5051505;28;20051;-76
2022/05/06 00:03:57;;;;;;;6.05;1.67;;;;;;;16.60;37.08;99521.91;5034703;28;20044;-76
2022/05/06 00:06:23;;;;;;;2.58;1.30;;;;;;;16.57;37.15;99512.50;5034653;28;20025;-76
2022/05/06 00:08:48;;;;;;;3.65;1.40;;;;;;;16.53;37.09;99505.81;5051278;28;20029;-76
2022/05/06 00:11:14;;;;;;;3.53;1.55;;;;;;;16.50;37.38;99500.00;5051154;28;20025;-76
2022/05/06 00:13:39;;;;;;;2.33;1.38;;;;;;;16.43;37.39;99504.94;5053229;28;20071;-76
2022/05/06 00:16:05;;;;;;;3.10;1.40;;;;;;;16.36;37.42;99499.41;5051816;28;20031;-76
2022/05/06 00:18:31;;;;;;;1.98;1.33;;;;;;;16.39;37.50;99500.94;5034562;28;20377;-75
2022/05/06 00:20:57;;;;;;;2.80;1.23;;;;;;;16.36;37.38;99504.66;5051257;28;20032;-75
2022/05/06 00:23:23;;;;;;;6.45;1.58;;;;;;;16.33;37.50;99498.84;5018274;28;20041;-76
2022/05/06 00:25:48;;;;;;;2.92;1.15;;;;;;;16.25;37.46;99499.50;5034280;28;20037;-76
2022/05/06 00:28:14;;;;;;;5.13;1.55;;;;;;;16.24;37.45;99500.47;5017987;28;20029;-76
2022/05/06 00:30:40;;;;;;;3.28;1.50;;;;;;;16.23;37.54;99493.56;5034751;28;20572;-76
2022/05/06 00:33:07;;;;;;;3.00;1.40;;;;;;;16.22;37.53;99491.88;5018061;28;20067;-76
2022/05/06 00:35:33;;;;;;;4.13;1.50;;;;;;;16.18;37.92;99501.84;5050619;28;20053;-76
2022/05/06 00:37:58;;;;;;;4.53;1.20;;;;;;;16.13;37.88;99492.69;5050844;28;20048;-76
2022/05/06 00:40:25;;;;;;;3.45;1.60;;;;;;;16.13;37.93;99497.94;5034154;28;20491;-76
2022/05/06 00:42:51;;;;;;;3.22;1.80;;;;;;;16.10;38.06;99499.06;5051997;28;20108;-76
2022/05/06 00:45:17;;;;;;;2.15;1.40;;;;;;;16.06;38.03;99493.22;5034718;28;20029;-76
2022/05/06 00:47:43;;;;;;;4.03;1.70;;;;;;;16.06;38.23;99493.22;5050749;28;20396;-76
2022/05/06 00:50:09;;;;;;;1.90;1.20;;;;;;;16.05;38.09;99499.47;5050869;28;20036;-75
2022/05/06 00:52:35;;;;;;;4.50;1.45;;;;;;;15.95;38.30;99490.69;5050856;28;20025;-76
2022/05/06 00:55:00;;;;;;;2.80;1.50;;;;;;;15.96;38.23;99492.38;5033857;28;20045;-76
2022/05/06 00:57:26;;;;;;;3.28;1.33;;;;;;;15.93;38.52;99495.25;5052093;28;20040;-76
2022/05/06 01:02:35;;;;;;;3.58;1.27;;;;;;;15.91;38.51;99487.50;5036805;28;20120;-75
2022/05/06 01:05:01;;;;;;;3.08;1.60;;;;;;;15.86;38.76;99491.47;5051802;28;20041;-75
2022/05/06 01:07:27;;;;;;;2.72;1.40;;;;;;;15.87;38.50;99490.53;5018099;28;20033;-75
2022/05/06 01:09:52;;;;;;;3.10;1.48;;;;;;;15.84;38.71;99493.41;5050564;28;20404;-75
2022/05/06 01:12:18;;;;;;;3.85;1.40;;;;;;;15.79;38.72;99496.44;5034312;28;20041;-75
2022/05/06 01:14:43;;;;;;;2.88;1.63;;;;;;;15.78;38.79;99496.56;5017775;28;20045;-77
2022/05/06 01:17:09;;;;;;;2.92;1.50;;;;;;;15.75;38.75;99481.88;5034022;28;20029;-76
2022/05/06 01:19:35;;;;;;;8.38;1.42;;;;;;;15.73;38.90;99482.00;5033658;28;20094;-75
2022/05/06 01:22:00;;;;;;;4.55;1.55;;;;;;;15.71;39.07;99477.81;5050762;28;20472;-76
2022/05/06 01:24:26;;;;;;;3.65;1.55;;;;;;;15.69;39.16;99477.94;5050482;28;20037;-76
2022/05/06 01:26:54;;;;;;;4.13;1.40;;;;;;;15.68;39.17;99480.72;5050128;28;20025;-76
2022/05/06 01:29:20;;;;;;;;;;;;;;;15.70;39.08;99484.88;5050992;28;20466;-76
2022/05/06 01:31:46;;;;;;;2.58;1.30;;;;;;;15.65;39.07;99476.53;5050274;28;19960;-76
2022/05/06 01:34:13;;;;;;;4.55;1.70;;;;;;;15.62;39.04;99468.91;5033544;28;20060;-76
2022/05/06 01:36:38;;;;;;;4.15;1.50;;;;;;;15.64;39.13;99471.41;5034709;28;20515;-76
2022/05/06 01:39:04;;;;;;;4.22;1.40;;;;;;;15.58;39.10;99467.50;5021159;28;20040;-76
2022/05/06 01:41:31;;;;;;;4.00;1.40;;;;;;;15.59;38.98;99471.78;5053866;28;20408;-77
2022/05/06 01:43:59;;;;;;;3.60;1.42;;;;;;;15.54;39.13;99466.94;5037601;28;20029;-78
2022/05/06 01:46:26;;;;;;;6.10;1.50;;;;;;;15.50;39.23;99469.97;5037534;28;20517;-77
2022/05/06 01:48:51;;;;;;;4.65;1.70;;;;;;;15.47;39.33;99460.53;5037303;28;20029;-76
2022/05/06 01:51:17;;;;;;;3.72;1.83;;;;;;;15.49;39.04;99466.47;5037114;28;20021;-76
2022/05/06 01:53:43;;;;;;;3.38;1.40;;;;;;;15.46;39.23;99461.47;5037520;28;20463;-75
2022/05/06 01:56:08;;;;;;;3.22;1.55;;;;;;;15.42;39.20;99459.25;5037130;28;20037;-76
2022/05/06 01:58:34;;;;;;;4.05;1.35;;;;;;;15.45;39.10;99465.09;5020404;28;20029;-76
2022/05/06 02:01:00;;;;;;;2.80;1.42;;;;;;;15.45;39.15;99466.88;5037167;28;20017;-76
2022/05/06 02:06:09;;;;;;;3.55;1.50;;;;;;;15.43;38.96;99460.91;5054058;28;20086;-76
2022/05/06 02:08:35;;;;;;;4.82;1.42;;;;;;;15.40;39.29;99458.53;5037049;28;20041;-76
2022/05/06 02:11:01;;;;;;;3.63;1.52;;;;;;;15.43;38.99;99458.28;5053919;28;20468;-76
2022/05/06 02:13:27;;;;;;;3.83;1.30;;;;;;;15.38;39.00;99448.97;5036848;28;20033;-76
2022/05/06 02:15:52;;;;;;;3.15;1.33;;;;;;;15.40;39.01;99448.03;5036819;28;20029;-76
2022/05/06 02:18:18;;;;;;;3.97;1.40;;;;;;;15.40;38.93;99453.28;5036828;28;20037;-76
2022/05/06 02:20:43;;;;;;;4.38;1.40;;;;;;;15.41;38.84;99447.91;5052916;28;20025;-76
2022/05/06 02:23:09;;;;;;;3.13;1.55;;;;;;;15.44;38.67;99447.63;5053057;28;20036;-76
2022/05/06 02:25:35;;;;;;;2.72;1.48;;;;;;;15.42;38.70;99451.34;5019828;28;20056;-76
2022/05/06 02:28:02;;;;;;;3.58;1.38;;;;;;;15.38;38.87;99443.72;5036955;28;20033;-76
2022/05/06 02:33:14;;;;;;;2.72;1.60;;;;;;;15.36;38.65;99448.28;5039365;28;20039;-76
2022/05/06 02:35:43;;;;;;;5.72;1.40;;;;;;;15.34;38.82;99444.97;5054147;28;20106;-76
2022/05/06 02:38:09;;;;;;;3.92;1.30;;;;;;;15.34;38.79;99444.13;5054533;28;20041;-76
2022/05/06 02:40:35;;;;;;;3.38;1.70;;;;;;;15.33;38.51;99447.72;5036198;28;20033;-76
2022/05/06 02:43:04;;;;;;;2.83;1.52;;;;;;;15.29;39.02;99449.78;5052936;28;20388;-76
2022/05/06 02:45:30;;;;;;;4.15;1.80;;;;;;;15.28;38.96;99453.38;5036560;28;20052;-76
2022/05/06 02:47:57;;;;;;;3.75;1.50;;;;;;;15.21;38.88;99444.31;5019017;28;20060;-76
2022/05/06 02:50:23;;;;;;;2.85;1.55;;;;;;;15.27;39.22;99456.13;5035974;28;20033;-76
2022/05/06 02:52:48;;;;;;;4.38;1.65;;;;;;;15.23;39.16;99452.94;5036234;28;20045;-76
2022/05/06 02:55:14;;;;;;;2.70;1.30;;;;;;;15.23;39.28;99454.69;5054088;28;20115;-76
2022/05/06 02:57:40;;;;;;;3.00;1.70;;;;;;;15.20;39.28;99450.56;5035997;28;20032;-76
2022/05/06 03:00:06;;;;;;;5.50;1.58;;;;;;;15.19;39.30;99454.13;5036005;28;20156;-76
2022/05/06 03:02:32;;;;;;;2.63;1.50;;;;;;;15.19;39.53;99449.69;5036175;28;20119;-76
2022/05/06 03:04:57;;;;;;;3.08;1.60;;;;;;;15.22;39.57;99453.06;5019343;28;20396;-76
2022/05/06 03:07:23;;;;;;;5.90;1.48;;;;;;;15.21;39.65;99452.19;5053520;28;20025;-76
2022/05/06 03:09:48;;;;;;;2.28;1.42;;;;;;;15.21;39.75;99454.84;5019368;28;20094;-76
2022/05/06 03:12:19;;;;;;;2.50;1.77;;;;;;;15.25;39.75;99456.25;5019250;28;20412;-76
2022/05/06 03:14:45;;;;;;;2.95;1.60;;;;;;;15.27;39.93;99464.84;5020002;28;20059;-76
2022/05/06 03:17:11;;;;;;;4.35;1.65;;;;;;;15.27;39.82;99467.47;5053538;28;20032;-76
2022/05/06 03:19:37;;;;;;;3.10;1.60;;;;;;;15.30;39.97;99475.09;5052211;28;20036;-70
2022/05/06 03:22:03;;;;;;;4.28;1.80;;;;;;;15.31;39.89;99476.78;5053104;28;20041;-76
2022/05/06 03:24:28;;;;;;;3.22;1.60;;;;;;;15.35;39.78;99479.97;5018567;28;20040;-76
2022/05/06 03:26:54;;;;;;;3.10;1.58;;;;;;;15.40;40.00;99476.97;5035235;28;20045;-76
2022/05/06 03:29:20;;;;;;;2.35;1.63;;;;;;;15.42;40.06;99483.78;5051862;28;20024;-76
2022/05/06 03:31:45;;;;;;;3.80;1.60;;;;;;;15.63;39.70;99486.38;5050430;28;20400;-76
2022/05/06 03:34:11;;;;;;;5.38;1.80;;;;;;;16.48;38.17;99484.31;5041973;28;20520;-76
2022/05/06 03:36:37;;;;;;;2.40;1.70;;;;;;;17.27;37.01;99482.53;5040017;28;20045;-76
2022/05/06 03:39:03;;;;;;;3.25;1.60;;;;;;;18.08;35.59;99487.28;5042683;28;20040;-76
2022/05/06 03:41:29;;;;;;;2.60;1.52;;;;;;;18.83;34.38;99476.44;5041346;28;20076;-76
2022/05/06 03:43:54;;;;;;;3.17;1.77;;;;;;;19.63;33.19;99486.16;5042501;28;20047;-77
2022/05/06 03:46:20;;;;;;;4.53;1.75;;;;;;;20.39;32.09;99476.53;5041250;28;20374;-78
2022/05/06 03:48:45;;;;;;;2.72;1.55;;;;;;;21.16;30.79;99478.97;5034927;28;20041;-75
2022/05/06 03:51:23;;;;;;;3.47;1.60;;;;;;;21.93;29.82;99480.28;5048108;28;20035;-76
2022/05/06 03:53:52;;;;;;;4.43;1.50;;;;;;;22.74;28.58;99484.34;5051841;28;20040;-76
2022/05/06 03:56:18;;;;;;;3.50;1.60;;;;;;;23.44;27.63;99484.28;5051392;28;20033;-74
2022/05/06 03:58:44;;;;;;;2.63;1.40;;;;;;;24.13;26.91;99494.66;5051357;28;20047;-74
2022/05/06 04:01:10;;;;;;;6.50;2.03;;;;;;;24.76;26.14;99486.13;5051141;28;20025;-74
2022/05/06 04:03:36;;;;;;;4.78;1.80;;;;;;;25.41;28.12;99499.41;5018178;28;20040;-71
2022/05/06 04:06:02;;;;;;;4.15;1.48;;;;;;;26.11;27.16;99499.44;5052474;28;20037;-73
2022/05/06 04:08:27;;;;;;;9.50;1.50;;;;;;;26.85;28.69;99495.94;5034570;28;20091;-72
